createdAt,value
2022-09-04T01:02:58.631Z,10.15
2022-09-04T01:05:57.865Z,10.09
2022-09-04T01:08:56.716Z,10.04
2022-09-04T01:14:25.535Z,9.99
2022-09-04T01:17:01.386Z,10.01
2022-09-04T01:19:50.926Z,10.04
2022-09-04T01:22:36.492Z,10.00
2022-09-04T01:25:14.317Z,10.04
2022-09-04T01:27:51.533Z,9.94
2022-09-04T01:30:21.146Z,9.83
2022-09-04T01:33:00.790Z,9.79
2022-09-04T01:35:35.408Z,9.84
2022-09-04T01:38:14.068Z,9.80
2022-09-04T01:40:48.146Z,9.67
2022-09-04T01:43:21.108Z,9.60
2022-09-04T01:46:13.046Z,9.41
2022-09-04T01:48:53.725Z,9.45
2022-09-04T01:51:29.098Z,9.46
2022-09-04T01:54:08.449Z,9.31
2022-09-04T01:56:42.302Z,9.14
2022-09-04T01:59:19.257Z,9.26
2022-09-04T02:01:53.647Z,9.20
2022-09-04T02:04:27.742Z,9.20
2022-09-04T02:07:06.253Z,9.29
2022-09-04T02:09:42.301Z,9.22
2022-09-04T02:12:27.333Z,9.23
2022-09-04T02:15:07.319Z,9.27
2022-09-04T02:17:43.605Z,9.29
2022-09-04T02:20:22.461Z,9.35
2022-09-04T02:23:00.076Z,9.39
2022-09-04T02:25:33.317Z,9.39
2022-09-04T02:28:15.416Z,9.44
2022-09-04T02:30:54.464Z,9.35
2022-09-04T02:33:30.041Z,9.43
2022-09-04T02:36:03.517Z,9.27
2022-09-04T02:38:39.832Z,9.23
2022-09-04T02:41:19.580Z,9.19
2022-09-04T02:44:03.152Z,9.19
2022-09-04T02:46:43.388Z,9.25
2022-09-04T02:49:20.226Z,9.23
2022-09-04T02:51:59.068Z,9.24
2022-09-04T02:54:41.812Z,9.26
2022-09-04T02:57:20.288Z,9.28
2022-09-04T03:00:04.785Z,9.28
2022-09-04T03:02:39.164Z,9.23
2022-09-04T03:05:18.819Z,9.25
2022-09-04T03:07:57.391Z,9.24
2022-09-04T03:10:31.309Z,9.27
2022-09-04T03:13:06.273Z,9.24
2022-09-04T03:15:44.373Z,9.20
2022-09-04T03:18:20.897Z,9.13
2022-09-04T03:20:55.775Z,9.14
2022-09-04T03:23:33.706Z,9.15
2022-09-04T03:26:16.615Z,9.13
2022-09-04T03:29:00.087Z,9.13
2022-09-04T03:31:36.988Z,9.08
2022-09-04T03:34:16.190Z,9.03
2022-09-04T03:36:58.597Z,8.98
2022-09-04T03:39:39.071Z,8.80
2022-09-04T03:42:16.814Z,8.89
2022-09-04T03:44:59.899Z,8.84
2022-09-04T03:47:36.271Z,8.82
2022-09-04T03:50:16.869Z,8.81
2022-09-04T03:52:56.074Z,8.81
2022-09-04T03:55:57.509Z,8.84
2022-09-04T03:58:37.043Z,8.78
2022-09-04T04:01:13.253Z,8.82
2022-09-04T04:04:01.428Z,8.80
2022-09-04T04:06:39.469Z,8.80
2022-09-04T04:09:30.617Z,8.77
2022-09-04T04:12:13.462Z,8.81
2022-09-04T04:14:57.149Z,8.80
2022-09-04T04:17:44.748Z,8.87
2022-09-04T04:20:22.956Z,8.84
2022-09-04T04:23:17.687Z,8.83
2022-09-04T04:26:04.820Z,8.95
2022-09-04T04:28:51.633Z,8.93
2022-09-04T04:31:27.726Z,8.94
2022-09-04T04:34:03.796Z,9.03
2022-09-04T04:36:40.271Z,8.98
2022-09-04T04:39:20.290Z,9.18
2022-09-04T04:42:07.693Z,9.11
2022-09-04T04:45:29.547Z,9.30
2022-09-04T04:48:29.939Z,9.32
2022-09-04T04:51:09.543Z,9.32
2022-09-04T04:53:46.889Z,9.43
2022-09-04T04:56:23.839Z,9.49
2022-09-04T04:59:04.406Z,9.50
2022-09-04T05:01:46.800Z,9.56
2022-09-04T05:04:18.876Z,9.53
2022-09-04T05:06:55.136Z,9.54
2022-09-04T05:09:30.063Z,9.53
2022-09-04T05:12:10.469Z,9.50
2022-09-04T05:14:51.449Z,9.54
2022-09-04T05:17:27.837Z,9.56
2022-09-04T05:20:21.470Z,9.57
2022-09-04T05:22:57.671Z,9.61
2022-09-04T05:25:37.965Z,9.63
2022-09-04T05:28:21.227Z,9.64
2022-09-04T05:30:57.161Z,9.68
2022-09-04T05:33:34.791Z,9.73
2022-09-04T05:36:10.957Z,9.79
2022-09-04T05:38:48.725Z,9.95
2022-09-04T05:41:31.693Z,10.02
2022-09-04T05:44:18.613Z,10.03
2022-09-04T05:46:58.659Z,9.95
2022-09-04T05:49:43.433Z,10.02
2022-09-04T05:52:37.249Z,10.11
2022-09-04T05:55:23.914Z,9.96
2022-09-04T05:58:02.749Z,10.00
2022-09-04T06:00:45.142Z,9.93
2022-09-04T06:03:33.871Z,9.94
2022-09-04T06:06:09.869Z,10.01
2022-09-04T06:09:12.469Z,10.02
2022-09-04T06:12:19.331Z,10.07
2022-09-04T06:15:22.764Z,10.14
2022-09-04T06:18:08.303Z,10.16
2022-09-04T06:20:50.846Z,10.19
2022-09-04T06:23:43.540Z,10.19
2022-09-04T06:26:35.552Z,10.23
2022-09-04T06:29:12.757Z,10.28
2022-09-04T06:31:59.672Z,10.27
2022-09-04T06:34:55.286Z,10.31
2022-09-04T06:37:36.111Z,10.25
2022-09-04T06:40:20.426Z,10.26
2022-09-04T06:42:59.853Z,10.30
2022-09-04T06:45:44.367Z,10.40
2022-09-04T06:48:23.085Z,10.51
2022-09-04T06:51:07.751Z,10.53
2022-09-04T06:53:42.510Z,10.51
2022-09-04T06:56:29.433Z,10.60
2022-09-04T06:59:26.962Z,10.59
2022-09-04T07:02:10.857Z,10.64
2022-09-04T07:04:51.308Z,10.70
2022-09-04T07:07:26.278Z,10.59
2022-09-04T07:10:01.321Z,10.68
2022-09-04T07:12:54.054Z,10.66
2022-09-04T07:15:56.907Z,10.69
2022-09-04T07:18:40.794Z,10.81
2022-09-04T07:21:17.274Z,10.97
2022-09-04T07:23:55.812Z,11.13
2022-09-04T07:26:35.227Z,11.33
2022-09-04T07:29:30.401Z,11.47
2022-09-04T07:32:05.777Z,11.52
2022-09-04T07:34:44.522Z,11.67
2022-09-04T07:37:25.016Z,11.69
2022-09-04T07:40:04.855Z,11.82
2022-09-04T07:42:44.218Z,11.97
2022-09-04T07:45:22.989Z,11.84
2022-09-04T07:47:58.422Z,11.94
2022-09-04T07:50:32.982Z,12.01
2022-09-04T07:53:20.695Z,12.12
